createdAt,value
2018-02-08T00:00:46.680Z,33.55
2018-02-08T00:03:23.741Z,31.42
2018-02-08T00:05:52.026Z,32.53
2018-02-08T00:08:20.538Z,32.55
2018-02-08T00:10:48.838Z,33.97
2018-02-08T00:13:17.648Z,32.17
2018-02-08T00:15:45.989Z,30.95
2018-02-08T00:18:18.108Z,29.75
2018-02-08T00:20:46.448Z,29.95
2018-02-08T00:23:18.371Z,29.85
2018-02-08T00:25:46.685Z,30.12
2018-02-08T00:28:16.826Z,30.83
2018-02-08T00:30:45.169Z,30.75
2018-02-08T00:33:16.787Z,30.77
2018-02-08T00:35:45.092Z,30.42
2018-02-08T00:38:19.256Z,30.23
2018-02-08T00:40:48.266Z,30.08
2018-02-08T00:43:16.649Z,29.48
2018-02-08T00:45:44.979Z,29.25
2018-02-08T00:48:16.634Z,28.77
2018-02-08T00:50:45.740Z,29.70
2018-02-08T00:53:17.429Z,28.92
2018-02-08T00:55:47.026Z,29.05
2018-02-08T00:58:16.930Z,27.50
2018-02-08T01:00:45.211Z,26.98
2018-02-08T01:03:17.383Z,27.98
2018-02-08T01:05:45.683Z,28.67
2018-02-08T01:08:17.973Z,27.65
2018-02-08T01:10:47.197Z,27.05
2018-02-08T01:13:16.958Z,27.75
2018-02-08T01:15:45.538Z,27.37
2018-02-08T01:18:16.653Z,27.40
2018-02-08T01:20:45.293Z,26.70
2018-02-08T01:23:17.560Z,26.87
2018-02-08T01:25:45.882Z,26.83
2018-02-08T01:28:17.722Z,25.65
2018-02-08T01:30:46.017Z,26.87
2018-02-08T01:33:17.282Z,26.30
2018-02-08T01:35:45.796Z,27.13
2018-02-08T01:38:17.245Z,25.50
2018-02-08T01:40:46.018Z,27.27
2018-02-08T01:43:17.466Z,27.50
2018-02-08T01:45:45.748Z,26.85
2018-02-08T01:48:17.688Z,26.05
2018-02-08T01:50:46.001Z,25.92
2018-02-08T01:53:18.060Z,26.02
2018-02-08T01:55:46.366Z,27.05
2018-02-08T01:58:18.476Z,26.52
2018-02-08T02:00:46.813Z,26.80
2018-02-08T02:03:16.745Z,25.52
2018-02-08T02:05:45.057Z,26.60
2018-02-08T02:08:20.239Z,27.27
2018-02-08T02:10:48.540Z,25.75
2018-02-08T02:13:16.870Z,27.90
2018-02-08T02:15:45.449Z,26.45
2018-02-08T02:18:16.761Z,26.92
2018-02-08T02:20:45.050Z,26.83
2018-02-08T02:23:16.419Z,25.40
2018-02-08T02:25:44.708Z,27.77
2018-02-08T02:28:16.025Z,27.37
2018-02-08T02:30:44.891Z,26.80
2018-02-08T02:33:18.156Z,26.55
2018-02-08T02:35:47.399Z,25.90
2018-02-08T02:38:17.562Z,26.92
2018-02-08T02:40:46.065Z,27.40
2018-02-08T02:43:17.922Z,25.35
2018-02-08T02:45:46.223Z,26.98
2018-02-08T02:48:18.309Z,27.40
2018-02-08T02:50:46.917Z,26.48
2018-02-08T02:53:18.503Z,25.60
2018-02-08T02:55:46.809Z,25.12
2018-02-08T02:58:16.721Z,25.62
2018-02-08T03:00:45.045Z,24.50
2018-02-08T03:03:20.444Z,26.52
2018-02-08T03:05:48.757Z,25.35
2018-02-08T03:08:17.040Z,25.62
2018-02-08T03:10:45.348Z,26.52
2018-02-08T03:13:16.832Z,25.42
2018-02-08T03:15:45.137Z,25.42
2018-02-08T03:18:16.480Z,26.35
2018-02-08T03:20:44.809Z,26.05
2018-02-08T03:23:20.285Z,25.20
2018-02-08T03:25:48.548Z,27.13
2018-02-08T03:28:17.624Z,25.80
2018-02-08T03:30:51.075Z,26.27
2018-02-08T03:33:19.399Z,26.17
2018-02-08T03:35:47.683Z,26.77
2018-02-08T03:38:16.932Z,26.90
2018-02-08T03:40:45.264Z,27.52
2018-02-08T03:43:17.198Z,28.02
2018-02-08T03:45:45.487Z,27.85
2018-02-08T03:48:17.432Z,27.08
2018-02-08T03:50:45.940Z,27.40
2018-02-08T03:53:17.793Z,26.37
2018-02-08T03:55:46.069Z,26.90
2018-02-08T03:58:18.903Z,26.92
2018-02-08T04:00:47.196Z,26.70
2018-02-08T04:03:18.634Z,26.67
2018-02-08T04:05:47.240Z,28.45
2018-02-08T04:08:16.966Z,27.37
2018-02-08T04:10:45.300Z,26.50
2018-02-08T04:13:17.523Z,27.37
2018-02-08T04:15:45.821Z,26.85
2018-02-08T04:18:18.009Z,27.77
2018-02-08T04:20:46.319Z,27.35
2018-02-08T04:23:18.018Z,26.30
2018-02-08T04:25:46.453Z,25.85
2018-02-08T04:28:18.618Z,26.80
2018-02-08T04:30:46.941Z,27.37
2018-02-08T04:33:18.544Z,26.48
2018-02-08T04:35:46.970Z,26.20
2018-02-08T04:38:18.009Z,27.42
2018-02-08T04:40:58.280Z,25.62
2018-02-08T04:43:38.308Z,27.10
2018-02-08T04:46:18.206Z,27.10
2018-02-08T04:48:46.490Z,28.42
2018-02-08T04:51:14.781Z,28.23
2018-02-08T04:53:43.091Z,28.52
2018-02-08T04:56:11.797Z,27.40
2018-02-08T04:58:40.200Z,26.87
2018-02-08T05:01:08.516Z,28.92
2018-02-08T05:03:36.826Z,28.05
2018-02-08T05:06:05.132Z,28.42
2018-02-08T05:08:33.448Z,27.80
2018-02-08T05:11:01.739Z,29.40
2018-02-08T05:13:30.045Z,27.02
2018-02-08T05:15:58.548Z,27.48
2018-02-08T05:18:26.839Z,26.87
2018-02-08T05:20:55.157Z,27.10
2018-02-08T05:23:23.448Z,27.35
2018-02-08T05:25:51.759Z,27.65
2018-02-08T05:28:20.071Z,28.60
2018-02-08T05:30:48.678Z,28.70
2018-02-08T05:33:17.561Z,28.27
2018-02-08T05:35:45.870Z,28.75
2018-02-08T05:38:16.963Z,27.40
2018-02-08T05:40:45.372Z,28.87
2018-02-08T05:43:17.373Z,28.95
2018-02-08T05:45:45.672Z,28.27
2018-02-08T05:48:17.636Z,28.50
2018-02-08T05:50:46.217Z,28.38
2018-02-08T05:53:18.433Z,26.65
2018-02-08T05:55:46.930Z,26.30
2018-02-08T05:58:18.752Z,26.83
2018-02-08T06:00:47.042Z,27.80
2018-02-08T06:03:16.868Z,28.40
2018-02-08T06:05:45.185Z,28.30
2018-02-08T06:08:18.184Z,28.42
2018-02-08T06:10:46.496Z,27.05
2018-02-08T06:13:19.320Z,25.98
2018-02-08T06:15:47.617Z,27.42
2018-02-08T06:18:17.085Z,27.50
2018-02-08T06:20:45.493Z,26.87
2018-02-08T06:23:17.776Z,28.55
2018-02-08T06:25:46.077Z,26.87
2018-02-08T06:28:18.265Z,27.67
2018-02-08T06:30:46.799Z,28.10
2018-02-08T06:33:16.906Z,26.77
2018-02-08T06:35:45.446Z,28.35
2018-02-08T06:38:16.811Z,26.10
2018-02-08T06:40:45.103Z,26.35
2018-02-08T06:43:20.224Z,26.55
2018-02-08T06:45:48.512Z,26.58
2018-02-08T06:48:16.819Z,27.23
2018-02-08T06:50:45.124Z,26.52
2018-02-08T06:53:17.265Z,28.05
2018-02-08T06:55:46.865Z,26.70
2018-02-08T06:58:18.295Z,26.45
2018-02-08T07:00:48.255Z,27.52
2018-02-08T07:03:18.936Z,26.58
2018-02-08T07:05:48.871Z,27.25
2018-02-08T07:08:19.354Z,28.35
2018-02-08T07:10:49.157Z,27.48
2018-02-08T07:13:18.628Z,28.52
2018-02-08T07:15:48.455Z,30.70
2018-02-08T07:18:18.504Z,31.10
2018-02-08T07:20:48.728Z,30.20
2018-02-08T07:23:18.910Z,30.35
2018-02-08T07:25:48.624Z,30.45
2018-02-08T07:28:18.697Z,29.75
2018-02-08T07:30:49.110Z,34.22
2018-02-08T07:33:19.059Z,35.33
2018-02-08T07:35:48.886Z,37.13
2018-02-08T07:38:19.103Z,35.70
2018-02-08T07:40:48.713Z,34.40
2018-02-08T07:43:19.130Z,30.52
2018-02-08T07:45:49.033Z,30.17
2018-02-08T07:48:19.103Z,27.90
2018-02-08T07:50:49.360Z,28.92
2018-02-08T07:53:17.684Z,31.20
2018-02-08T07:55:45.986Z,31.15
2018-02-08T07:58:17.572Z,32.60
2018-02-08T08:00:46.021Z,30.20
2018-02-08T08:03:17.602Z,29.98
2018-02-08T08:05:46.095Z,29.95
2018-02-08T08:08:17.943Z,30.17
2018-02-08T08:10:46.268Z,28.42
2018-02-08T08:13:18.275Z,26.65
2018-02-08T08:15:46.585Z,26.35
2018-02-08T08:18:16.701Z,26.95
2018-02-08T08:20:45.046Z,27.75
2018-02-08T08:23:16.849Z,26.55
2018-02-08T08:25:45.140Z,25.48
2018-02-08T08:28:20.151Z,25.08
2018-02-08T08:30:48.482Z,26.23
2018-02-08T08:33:20.420Z,25.70
2018-02-08T08:35:48.721Z,25.08
2018-02-08T08:38:17.042Z,25.98
2018-02-08T08:40:45.336Z,26.00
2018-02-08T08:43:16.824Z,25.70
2018-02-08T08:45:45.141Z,23.77
2018-02-08T08:48:20.284Z,24.77
2018-02-08T08:50:48.728Z,25.23
2018-02-08T08:53:17.096Z,25.30
2018-02-08T08:55:49.785Z,24.40
2018-02-08T08:58:18.972Z,25.80
2018-02-08T09:00:47.484Z,23.98
2018-02-08T09:03:17.310Z,24.67
2018-02-08T09:05:45.594Z,24.70
2018-02-08T09:08:17.709Z,24.95
2018-02-08T09:10:46.011Z,26.40
2018-02-08T09:13:18.108Z,25.83
2018-02-08T09:15:46.393Z,26.02
2018-02-08T09:18:17.660Z,26.17
2018-02-08T09:20:46.147Z,26.87
2018-02-08T09:23:18.316Z,26.33
2018-02-08T09:25:47.043Z,26.55
2018-02-08T09:28:16.863Z,25.92
2018-02-08T09:30:45.163Z,24.90
2018-02-08T09:33:18.268Z,26.75
2018-02-08T09:35:47.223Z,26.80
2018-02-08T09:38:16.968Z,27.92
2018-02-08T09:40:45.276Z,26.65
2018-02-08T09:43:17.292Z,26.90
2018-02-08T09:45:45.595Z,25.15
2018-02-08T09:48:17.629Z,26.20
2018-02-08T09:50:46.184Z,26.67
2018-02-08T09:53:18.093Z,26.60
2018-02-08T09:55:46.398Z,27.40
2018-02-08T09:58:17.622Z,28.05
2018-02-08T10:00:46.672Z,26.83
2018-02-08T10:03:18.324Z,27.77
2018-02-08T10:05:46.840Z,28.33
2018-02-08T10:08:18.974Z,27.27
2018-02-08T10:10:47.511Z,28.92
2018-02-08T10:13:16.925Z,28.87
2018-02-08T10:15:45.219Z,28.25
2018-02-08T10:18:16.774Z,27.37
2018-02-08T10:20:45.384Z,28.42
2018-02-08T10:23:18.291Z,26.67
2018-02-08T10:25:46.606Z,27.27
2018-02-08T10:28:17.870Z,26.42
2018-02-08T10:30:46.269Z,27.50
2018-02-08T10:33:18.482Z,27.13
2018-02-08T10:35:47.609Z,30.23
2018-02-08T10:38:16.963Z,26.95
2018-02-08T10:40:45.295Z,28.12
2018-02-08T10:43:16.959Z,28.43
2018-02-08T10:45:45.240Z,28.97
2018-02-08T10:48:16.708Z,28.60
2018-02-08T10:50:45.128Z,29.13
2018-02-08T10:53:20.264Z,29.83
2018-02-08T10:55:48.564Z,30.03
2018-02-08T10:58:16.840Z,29.23
2018-02-08T11:00:45.144Z,29.70
2018-02-08T11:03:20.157Z,29.40
2018-02-08T11:05:48.734Z,29.53
2018-02-08T11:08:17.012Z,41.20
2018-02-08T11:10:45.313Z,36.70
2018-02-08T11:13:17.452Z,31.33
2018-02-08T11:15:45.742Z,33.30
2018-02-08T11:18:17.578Z,31.97
2018-02-08T11:20:45.926Z,32.97
2018-02-08T11:23:18.071Z,34.13
2018-02-08T11:25:46.375Z,30.27
2018-02-08T11:28:17.709Z,29.57
2018-02-08T11:30:46.009Z,29.27
2018-02-08T11:33:18.145Z,31.33
2018-02-08T11:35:46.699Z,30.63
2018-02-08T11:38:18.684Z,30.37
2018-02-08T11:40:47.446Z,35.33
2018-02-08T11:43:16.965Z,33.07
2018-02-08T11:45:45.276Z,30.37
2018-02-08T11:48:16.959Z,31.93
2018-02-08T11:50:47.239Z,31.67
2018-02-08T11:53:17.227Z,32.23
2018-02-08T11:55:45.505Z,32.67
2018-02-08T11:58:18.670Z,33.30
2018-02-08T12:00:46.953Z,33.07
2018-02-08T12:03:18.806Z,32.87
2018-02-08T12:05:48.729Z,33.53
2018-02-08T12:08:18.882Z,32.67
2018-02-08T12:10:49.312Z,34.90
2018-02-08T12:13:21.073Z,34.00
2018-02-08T12:15:51.772Z,32.20
2018-02-08T12:18:21.678Z,33.37
2018-02-08T12:20:51.437Z,31.43
2018-02-08T12:23:21.216Z,32.73
2018-02-08T12:25:51.442Z,33.97
2018-02-08T12:28:21.430Z,36.17
2018-02-08T12:30:52.427Z,35.90
2018-02-08T12:33:22.219Z,35.30
2018-02-08T12:35:51.582Z,33.60
2018-02-08T12:38:22.157Z,35.17
2018-02-08T12:40:52.375Z,34.67
2018-02-08T12:43:23.300Z,33.17
2018-02-08T12:45:53.103Z,34.57
2018-02-08T12:48:21.466Z,33.93
2018-02-08T12:50:50.028Z,34.13
2018-02-08T12:53:18.345Z,32.33
2018-02-08T12:55:46.720Z,35.17
2018-02-08T12:58:16.917Z,33.33
2018-02-08T13:00:45.227Z,35.63
2018-02-08T13:03:19.028Z,34.33
2018-02-08T13:05:47.341Z,34.70
2018-02-08T13:08:17.882Z,34.37
2018-02-08T13:10:47.273Z,33.43
2018-02-08T13:13:17.380Z,33.50
2018-02-08T13:15:45.671Z,34.30
2018-02-08T13:18:17.786Z,32.37
2018-02-08T13:20:46.073Z,33.83
2018-02-08T13:23:18.007Z,33.30
2018-02-08T13:25:46.351Z,31.63
2018-02-08T13:28:18.491Z,34.10
2018-02-08T13:30:47.711Z,33.57
2018-02-08T13:33:16.854Z,33.57
2018-02-08T13:35:45.153Z,33.80
2018-02-08T13:38:18.356Z,33.57
2018-02-08T13:40:49.466Z,34.50
2018-02-08T13:43:18.050Z,33.73
2018-02-08T13:45:46.336Z,37.87
2018-02-08T13:48:21.797Z,34.40
2018-02-08T13:50:51.419Z,34.13
2018-02-08T13:56:33.948Z,33.77
2018-02-08T13:59:08.114Z,35.23
2018-02-08T14:01:36.929Z,35.50
2018-02-08T14:04:05.254Z,34.80
2018-02-08T14:06:33.561Z,34.83
2018-02-08T14:09:01.868Z,36.17
2018-02-08T14:11:30.387Z,43.23
2018-02-08T14:13:58.665Z,36.00
2018-02-08T14:16:26.968Z,32.53
2018-02-08T14:18:55.268Z,31.23
2018-02-08T14:21:23.640Z,33.47
2018-02-08T14:23:51.910Z,35.67
2018-02-08T14:26:20.238Z,35.83
2018-02-08T14:28:48.625Z,34.05
2018-02-08T14:31:17.476Z,35.80
2018-02-08T14:33:46.093Z,35.55
2018-02-08T14:36:14.399Z,35.55
2018-02-08T14:38:42.713Z,34.72
2018-02-08T14:41:11.009Z,35.75
2018-02-08T14:43:39.329Z,35.40
2018-02-08T14:46:07.624Z,36.90
2018-02-08T14:48:35.932Z,36.45
2018-02-08T14:51:04.313Z,40.67
2018-02-08T14:53:32.596Z,40.70
2018-02-08T14:56:00.880Z,37.90
2018-02-08T14:58:29.304Z,36.30
2018-02-08T15:00:57.584Z,36.75
2018-02-08T15:03:25.953Z,36.15
2018-02-08T15:05:54.278Z,37.30
2018-02-08T15:08:23.384Z,36.38
2018-02-08T15:10:51.709Z,35.45
2018-02-08T15:13:19.988Z,35.22
2018-02-08T15:15:48.293Z,35.45
2018-02-08T15:18:16.577Z,37.10
2018-02-08T15:20:45.005Z,37.15
2018-02-08T15:23:15.911Z,36.30
2018-02-08T15:25:44.439Z,36.35
2018-02-08T15:28:16.494Z,35.67
2018-02-08T15:30:44.793Z,35.88
2018-02-08T15:33:16.423Z,38.70
2018-02-08T15:35:44.720Z,36.97
2018-02-08T15:38:16.874Z,37.35
2018-02-08T15:40:45.207Z,36.05
2018-02-08T15:43:16.404Z,36.47
2018-02-08T15:45:44.904Z,36.70
2018-02-08T15:48:16.869Z,35.05
2018-02-08T15:50:45.236Z,36.10
2018-02-08T15:53:17.385Z,35.88
2018-02-08T15:55:45.680Z,38.60
2018-02-08T15:58:16.916Z,38.17
2018-02-08T16:00:45.204Z,38.15
2018-02-08T16:03:17.381Z,36.55
2018-02-08T16:05:45.788Z,37.40
2018-02-08T16:08:15.809Z,35.28
2018-02-08T16:10:44.110Z,37.38
2018-02-08T16:13:17.497Z,36.40
2018-02-08T16:15:45.999Z,37.15
2018-02-08T16:18:16.011Z,36.22
2018-02-08T16:20:44.350Z,37.97
2018-02-08T16:23:18.450Z,38.30
2018-02-08T16:25:47.089Z,36.15
2018-02-08T16:28:16.138Z,38.15
2018-02-08T16:30:44.436Z,34.60
2018-02-08T16:33:18.503Z,34.95
2018-02-08T16:35:46.793Z,36.80
2018-02-08T16:38:16.347Z,35.42
2018-02-08T16:40:44.647Z,35.22
2018-02-08T16:43:16.508Z,35.63
2018-02-08T16:45:44.876Z,35.70
2018-02-08T16:48:16.506Z,36.30
2018-02-08T16:50:44.784Z,36.30
2018-02-08T16:53:16.648Z,36.15
2018-02-08T16:55:44.942Z,38.10
2018-02-08T16:58:16.810Z,37.90
2018-02-08T17:00:45.078Z,37.63
2018-02-08T17:03:17.236Z,36.75
2018-02-08T17:05:45.517Z,38.53
2018-02-08T17:08:17.666Z,36.20
2018-02-08T17:10:45.960Z,35.08
2018-02-08T17:13:18.886Z,38.55
2018-02-08T17:15:47.213Z,37.78
2018-02-08T17:18:16.441Z,39.53
2018-02-08T17:20:44.757Z,41.67
2018-02-08T17:23:15.985Z,38.55
2018-02-08T17:25:44.301Z,40.05
2018-02-08T17:28:15.611Z,41.22
2018-02-08T17:30:43.929Z,40.65
2018-02-08T17:33:15.262Z,39.28
2018-02-08T17:35:43.560Z,39.22
2018-02-08T17:38:18.264Z,40.50
2018-02-08T17:40:46.569Z,38.72
2018-02-08T17:43:15.984Z,38.45
2018-02-08T17:45:44.300Z,37.80
2018-02-08T17:48:17.230Z,39.33
2018-02-08T17:50:45.982Z,39.78
2018-02-08T17:53:17.733Z,41.63
2018-02-08T17:55:46.045Z,40.08
2018-02-08T17:58:16.583Z,38.90
2018-02-08T18:00:44.900Z,40.40
2018-02-08T18:03:16.893Z,39.03
2018-02-08T18:05:45.414Z,38.42
2018-02-08T18:08:18.351Z,41.78
2018-02-08T18:10:48.859Z,43.78
2018-02-08T18:13:18.653Z,43.15
2018-02-08T18:15:49.387Z,44.50
2018-02-08T18:18:21.803Z,46.80
2018-02-08T18:20:50.471Z,43.25
2018-02-08T18:23:21.267Z,40.30
2018-02-08T18:25:49.726Z,38.47
2018-02-08T18:28:18.031Z,38.88
2018-02-08T18:30:46.329Z,40.10
2018-02-08T18:33:17.577Z,39.47
2018-02-08T18:35:46.506Z,38.63
2018-02-08T18:38:16.786Z,41.55
2018-02-08T18:40:45.123Z,39.20
2018-02-08T18:43:16.988Z,39.35
2018-02-08T18:45:46.029Z,38.60
2018-02-08T18:48:17.361Z,40.40
2018-02-08T18:50:45.683Z,38.40
2018-02-08T18:53:17.498Z,38.67
2018-02-08T18:55:45.947Z,38.53
2018-02-08T18:58:19.068Z,39.45
2018-02-08T19:00:48.511Z,39.15
2018-02-08T19:03:17.222Z,37.40
2018-02-08T19:05:45.544Z,40.15
2018-02-08T19:08:16.789Z,38.25
2018-02-08T19:10:45.092Z,39.60
2018-02-08T19:13:17.133Z,39.75
2018-02-08T19:15:45.743Z,38.13
2018-02-08T19:18:17.529Z,40.53
2018-02-08T19:20:45.842Z,39.40
2018-02-08T19:23:16.001Z,40.10
2018-02-08T19:25:44.583Z,40.63
2018-02-08T19:28:16.060Z,40.35
2018-02-08T19:30:44.380Z,39.13
2018-02-08T19:33:16.646Z,38.97
2018-02-08T19:35:44.970Z,38.80
2018-02-08T19:38:19.097Z,41.10
2018-02-08T19:40:47.397Z,40.55
2018-02-08T19:43:16.373Z,41.03
2018-02-08T19:45:44.902Z,41.42
2018-02-08T19:48:16.080Z,40.72
2018-02-08T19:50:44.596Z,40.55
2018-02-08T19:53:16.652Z,40.67
2018-02-08T19:55:44.969Z,41.67
2018-02-08T19:58:16.892Z,40.42
2018-02-08T20:00:45.334Z,41.65
2018-02-08T20:03:15.941Z,40.30
2018-02-08T20:05:44.516Z,42.85
2018-02-08T20:08:18.513Z,44.15
2018-02-08T20:10:46.856Z,42.00
2018-02-08T20:13:16.472Z,41.08
2018-02-08T20:15:44.770Z,44.53
2018-02-08T20:18:16.049Z,42.60
2018-02-08T20:20:44.358Z,43.03
2018-02-08T20:23:19.409Z,41.60
2018-02-08T20:25:47.738Z,42.67
2018-02-08T20:28:16.036Z,43.28
2018-02-08T20:30:49.945Z,43.70
2018-02-08T20:33:18.245Z,43.28
2018-02-08T20:35:46.560Z,43.53
2018-02-08T20:38:16.637Z,44.35
2018-02-08T20:40:44.935Z,45.80
2018-02-08T20:43:22.752Z,44.65
2018-02-08T20:45:51.061Z,46.58
2018-02-08T20:48:19.361Z,47.10
2018-02-08T20:50:47.647Z,43.85
2018-02-08T20:53:15.995Z,44.05
2018-02-08T20:55:44.287Z,45.00
2018-02-08T20:58:19.444Z,44.35
2018-02-08T21:00:47.869Z,46.28
2018-02-08T21:03:16.193Z,49.15
2018-02-08T21:05:44.501Z,50.15
2018-02-08T21:08:15.885Z,47.05
2018-02-08T21:10:44.177Z,50.28
2018-02-08T21:13:16.554Z,46.47
2018-02-08T21:15:45.172Z,46.00
2018-02-08T21:18:17.015Z,47.05
2018-02-08T21:20:45.344Z,49.33
2018-02-08T21:23:16.774Z,50.25
2018-02-08T21:25:45.321Z,48.35
2018-02-08T21:28:17.247Z,48.17
2018-02-08T21:30:45.796Z,47.60
2018-02-08T21:33:15.881Z,48.22
2018-02-08T21:35:44.396Z,48.92
2018-02-08T21:38:18.455Z,46.28
2018-02-08T21:40:46.791Z,46.75
2018-02-08T21:43:16.142Z,46.65
2018-02-08T21:45:44.447Z,45.22
2018-02-08T21:48:16.272Z,44.47
2018-02-08T21:50:44.571Z,45.78
2018-02-08T21:53:18.512Z,44.85
2018-02-08T21:55:46.805Z,44.25
2018-02-08T21:58:16.337Z,42.15
2018-02-08T22:00:44.910Z,43.95
2018-02-08T22:03:17.008Z,43.75
2018-02-08T22:05:45.625Z,43.28
2018-02-08T22:08:17.998Z,43.22
2018-02-08T22:10:46.520Z,42.83
2018-02-08T22:13:15.937Z,43.50
2018-02-08T22:15:44.288Z,43.05
2018-02-08T22:18:19.409Z,43.50
2018-02-08T22:20:47.761Z,43.17
2018-02-08T22:23:16.030Z,44.13
2018-02-08T22:25:44.354Z,44.75
2018-02-08T22:28:19.356Z,44.28
2018-02-08T22:30:47.663Z,44.42
2018-02-08T22:33:15.948Z,45.47
2018-02-08T22:35:45.060Z,43.58
2018-02-08T22:38:16.695Z,45.30
2018-02-08T22:40:44.989Z,45.45
2018-02-08T22:43:17.668Z,46.05
2018-02-08T22:45:46.000Z,44.65
2018-02-08T22:48:16.370Z,46.05
2018-02-08T22:50:44.665Z,45.22
2018-02-08T22:53:16.709Z,45.22
2018-02-08T22:55:45.105Z,45.12
2018-02-08T22:58:16.967Z,46.08
2018-02-08T23:00:45.260Z,48.28
2018-02-08T23:03:17.205Z,50.28
2018-02-08T23:05:45.487Z,46.03
2018-02-08T23:08:16.722Z,43.87
2018-02-08T23:10:45.011Z,44.97
2018-02-08T23:13:17.149Z,46.40
2018-02-08T23:15:45.446Z,44.70
2018-02-08T23:18:17.522Z,44.75
2018-02-08T23:20:45.820Z,45.30
2018-02-08T23:23:15.932Z,46.58
2018-02-08T23:25:44.228Z,47.15
2018-02-08T23:28:15.687Z,48.10
2018-02-08T23:30:44.207Z,47.50
2018-02-08T23:33:19.280Z,45.33
2018-02-08T23:35:48.549Z,46.83
2018-02-08T23:38:16.853Z,47.65
2018-02-08T23:40:45.396Z,47.72
2018-02-08T23:43:17.452Z,48.17
2018-02-08T23:45:45.808Z,46.25
2018-02-08T23:48:16.059Z,49.55
2018-02-08T23:50:44.354Z,50.20
2018-02-08T23:53:19.521Z,47.78
2018-02-08T23:55:48.341Z,48.08
2018-02-08T23:58:16.640Z,47.50
